Latest Weather Observations for Hindmarsh Island

IDS60901

Issued at 11:01 pm CST Sunday 27 September 2020 (issued every 10 minutes, with the page automatically refreshed every 10 minutes)

About weather observations | Map of Adelaide area stations | Latest observations for Adelaide area | Other Formats
Station Details ID: 023894 Name: HINDMARSH ISLAND AWS Lat: -35.52 Lon: 138.82 Height: 11.0 m
Data from the previous 72 hours. | See also: Recent months at Hindmarsh Island
Date/Time
CST
Temp
°C
App
Temp
°C
Dew
Point
°C
Rel
Hum
%
Delta-T
°C
Wind Press
QNH
hPa
Press
MSL
hPa
Rain since
9am
mm
Dir  Spd
km/h
Gust
km/h
Spd
kts
Gust
kts
27/11:00pm 9.3 5.8 7.1 86 1.0 NE 15 17 8 9 1025.8 1025.8 0.2
27/10:30pm 9.5 6.8 7.4 87 1.0 NE 11 13 6 7 1026.1 1026.1 0.2
27/10:00pm 9.0 5.5 7.0 87 0.9 E 15 17 8 9 1026.1 1026.1 0.2
27/09:30pm 9.1 5.2 7.1 87 0.9 E 17 19 9 10 1026.2 1026.2 0.2
27/09:00pm 9.1 4.8 6.9 86 1.0 E 19 20 10 11 1026.3 1026.3 0.2
27/08:30pm 9.4 5.1 7.0 85 1.1 E 19 20 10 11 1026.3 1026.3 0.2
27/08:00pm 9.5 5.5 6.6 82 1.4 E 17 19 9 10 1026.4 1026.4 0.2
27/07:30pm 9.9 6.3 6.6 80 1.5 ESE 15 17 8 9 1026.3 1026.3 0.2
27/07:00pm 10.8 7.6 6.7 76 1.9 ESE 13 17 7 9 1026.1 1026.1 0.2
27/06:30pm 12.0 7.9 7.7 75 2.1 SE 19 22 10 12 1025.6 1025.6 0.2
27/06:00pm 12.5 7.4 7.6 72 2.4 SE 24 26 13 14 1025.3 1025.3 0.2
27/05:30pm 13.1 8.4 7.8 70 2.6 SE 22 26 12 14 1025.2 1025.2 0.2
27/05:00pm 13.6 8.5 7.6 67 2.9 SE 24 28 13 15 1025.0 1025.0 0.2
27/04:30pm 14.0 9.2 7.5 65 3.2 SSE 22 28 12 15 1024.6 1024.6 0.2
27/04:00pm 14.3 9.8 7.1 62 3.5 SSE 20 26 11 14 1024.5 1024.5 0.2
27/03:30pm 14.4 9.8 6.7 60 3.7 S 20 24 11 13 1024.8 1024.8 0.2
27/03:00pm 14.7 10.3 6.5 58 3.9 SSE 19 22 10 12 1025.1 1025.1 0.2
27/02:30pm 14.8 10.9 6.9 59 3.8 S 17 20 9 11 1025.4 1025.4 0.2
27/02:00pm 14.4 11.1 6.5 59 3.8 S 13 17 7 9 1025.5 1025.5 0.2
27/01:30pm 14.1 10.5 6.7 61 3.6 SSE 15 19 8 10 1025.8 1025.8 0.2
27/01:00pm 13.7 10.4 6.6 62 3.4 SSE 13 17 7 9 1026.1 1026.1 0.2
27/12:30pm 13.9 10.7 6.7 62 3.5 S 13 15 7 8 1026.5 1026.5 0.2
27/12:00pm 13.6 10.9 7.4 66 3.0 S 11 15 6 8 1026.7 1026.7 0.2
27/11:30am 13.3 10.0 6.6 64 3.2 SSE 13 15 7 8 1027.0 1027.0 0.2
27/11:00am 13.4 10.6 7.0 65 3.1 SE 11 15 6 8 1027.3 1027.3 0.2
27/10:30am 13.0 10.5 6.4 64 3.1 SSW 9 13 5 7 1027.6 1027.6 0.2
27/10:00am 13.0 9.8 6.8 66 3.0 SSW 13 17 7 9 1027.7 1027.7 0.0
27/09:30am 14.1 12.2 9.1 72 2.5 NNE 9 13 5 7 1027.7 1027.7 0.0
27/09:00am 12.6 10.6 8.7 77 1.9 N 9 13 5 7 1027.7 1027.7 0.6
27/08:30am 11.1 8.9 8.0 81 1.5 NNE 9 13 5 7 1027.6 1027.6 0.6
27/08:00am 10.6 8.4 8.0 84 1.3 NNW 9 13 5 7 1027.4 1027.4 0.6
27/07:30am 9.8 7.1 7.4 85 1.1 NW 11 15 6 8 1027.2 1027.2 0.6
27/07:00am 9.7 6.7 7.6 87 1.0 WNW 13 15 7 8 1026.8 1026.8 0.6
27/06:30am 9.5 6.0 7.4 87 1.0 W 15 20 8 11 1026.2 1026.2 0.6
27/06:00am 9.3 4.8 7.1 86 1.0 W 20 26 11 14 1025.9 1025.9 0.6
27/05:30am 9.2 6.3 6.5 83 1.2 NW 11 15 6 8 1025.3 1025.3 0.6
27/05:00am 9.2 6.3 6.5 83 1.3 NNW 11 13 6 7 1024.8 1024.8 0.4
27/04:30am 9.0 6.1 6.3 83 1.2 NW 11 13 6 7 1024.6 1024.6 0.4
27/04:00am 9.2 6.3 6.3 82 1.3 NW 11 15 6 8 1024.4 1024.4 0.4
27/03:30am 9.5 8.8 6.9 84 1.2 CALM 0 4 0 2 1024.2 1024.2 0.4
27/03:00am 9.6 5.7 7.0 84 1.2 SSW 17 20 9 11 1024.2 1024.2 0.0
27/02:30am 10.0 6.7 6.3 78 1.7 W 13 20 7 11 1024.1 1024.1 0.0
27/02:00am 10.0 7.4 6.2 77 1.8 W 9 15 5 8 1024.1 1024.1 0.0
27/01:30am 9.7 7.1 6.2 79 1.6 NW 9 11 5 6 1024.1 1024.1 0.0
27/01:00am 9.2 6.1 5.6 78 1.6 NW 11 15 6 8 1024.2 1024.2 0.0
27/12:30am 9.4 7.1 5.9 79 1.6 NW 7 11 4 6 1024.5 1024.5 0.0
27/12:00am 9.7 7.1 6.2 79 1.6 WNW 9 15 5 8 1024.5 1024.5 0.0
 
Date/Time
CST
Temp
°C
App
Temp
°C
Dew
Point
°C
Rel
Hum
%
Delta-T
°C
Wind Press
QNH
hPa
Press
MSL
hPa
Rain since
9am
mm
Dir  Spd
km/h
Gust
km/h
Spd
kts
Gust
kts
26/11:30pm 9.2 6.2 6.1 81 1.4 WNW 11 15 6 8 1024.5 1024.5 0.0
26/11:00pm 9.6 7.1 6.5 81 1.4 W 9 13 5 7 1024.6 1024.6 0.0
26/10:30pm 9.7 4.5 7.3 85 1.1 SSW 24 33 13 18 1024.6 1024.6 0.0
26/10:00pm 11.1 6.7 6.5 73 2.2 SSW 19 32 10 17 1024.4 1024.4 0.0
26/09:30pm 10.6 5.8 5.4 70 2.4 SSW 20 24 11 13 1024.4 1024.4 0.0
26/09:00pm 10.8 4.6 4.5 65 2.8 SSW 26 35 14 19 1024.4 1024.4 0.0
26/08:30pm 11.0 4.9 6.6 74 2.1 SSW 28 33 15 18 1024.3 1024.3 0.0
26/08:00pm 11.4 6.0 4.6 63 3.1 SW 22 28 12 15 1024.2 1024.2 0.0
26/07:30pm 11.3 5.7 5.2 66 2.8 SW 24 30 13 16 1023.9 1023.9 0.0
26/07:00pm 11.5 5.5 5.4 66 2.8 SW 26 32 14 17 1023.5 1023.5 0.0
26/06:30pm 11.6 5.9 4.8 63 3.1 SW 24 30 13 16 1023.0 1023.0 0.0
26/06:00pm 11.7 5.4 5.8 67 2.7 SW 28 33 15 18 1022.9 1022.9 0.0
26/05:30pm 12.0 6.5 4.2 59 3.5 SW 22 30 12 16 1022.6 1022.6 0.0
26/05:00pm 12.2 6.8 4.7 60 3.4 SW 22 30 12 16 1022.3 1022.3 0.0
26/04:30pm 12.3 5.3 4.3 58 3.6 SW 30 35 16 19 1022.2 1022.2 0.0
26/04:00pm 12.6 6.0 4.3 57 3.8 SW 28 33 15 18 1022.1 1022.1 0.0
26/03:30pm 13.6 7.4 6.2 61 3.5 SW 28 35 15 19 1022.0 1022.0 0.0
26/03:00pm 13.6 7.4 4.2 53 4.3 SW 26 33 14 18 1022.0 1022.0 0.0
26/02:30pm 13.7 7.4 5.6 58 3.8 SW 28 32 15 17 1022.0 1022.0 0.0
26/02:00pm 12.8 7.1 4.8 58 3.7 SW 24 28 13 15 1022.2 1022.2 0.0
26/01:30pm 13.4 6.9 4.8 56 4.0 SW 28 33 15 18 1022.2 1022.2 0.0
26/01:00pm 13.5 6.9 4.1 53 4.3 SW 28 35 15 19 1022.1 1022.1 0.0
26/12:30pm 13.8 7.3 4.7 54 4.2 SW 28 37 15 20 1022.1 1022.1 0.0
26/12:00pm 14.3 8.0 3.5 48 4.9 SW 26 35 14 19 1022.1 1022.1 0.0
26/11:30am 13.9 7.4 4.8 54 4.2 SSW 28 33 15 18 1022.3 1022.3 0.0
26/11:00am 12.3 6.6 4.8 60 3.4 SSW 24 30 13 16 1022.4 1022.4 0.0
26/10:30am 10.7 3.2 6.5 75 2.0 SSW 35 50 19 27 1022.2 1022.2 0.0
26/10:25am 12.2 5.6 6.0 66 2.9 SSW 30 50 16 27 1022.2 1022.2 0.0
26/10:24am 12.7 6.4 5.8 63 3.2 SSW 28 39 15 21 1022.2 1022.2 0.0
26/10:00am 12.9 8.9 4.8 58 3.7 WSW 15 19 8 10 1022.3 1022.3 0.0
26/09:30am 12.1 5.6 4.6 60 3.4 SSW 28 39 15 21 1022.1 1022.1 0.0
26/09:00am 11.8 3.6 2.8 54 3.9 SSW 35 44 19 24 1021.8 1021.8 4.6
26/08:30am 12.2 4.1 3.4 55 3.9 SW 35 41 19 22 1021.4 1021.4 4.6
26/08:00am 11.5 4.6 4.5 62 3.2 SSW 30 41 16 22 1021.0 1021.0 4.6
26/07:30am 11.3 3.3 3.8 60 3.3 SW 35 43 19 23 1020.6 1020.6 4.6
26/07:00am 10.9 3.0 4.4 64 2.9 SSW 35 43 19 23 1020.1 1020.1 4.6
26/06:30am 10.8 3.4 4.9 67 2.7 SW 33 43 18 23 1019.5 1019.5 4.6
26/06:00am 10.2 3.0 5.2 71 2.3 SSW 32 37 17 20 1019.2 1019.2 4.6
26/05:30am 10.1 2.7 5.1 71 2.3 SSW 33 41 18 22 1018.7 1018.7 4.6
26/05:00am 9.9 2.0 4.3 68 2.5 SSW 35 46 19 25 1018.3 1018.3 4.6
26/04:30am 9.8 1.9 6.2 78 1.7 SSW 37 48 20 26 1018.0 1018.0 4.4
26/04:10am 9.8 1.4 5.8 76 1.8 SSW 39 57 21 31 1017.7 1017.7 4.4
26/04:00am 10.2 2.6 3.7 64 2.9 SSW 33 43 18 23 1017.8 1017.8 4.4
26/03:30am 10.1 2.2 4.5 68 2.5 SW 35 44 19 24 1017.6 1017.6 4.4
26/03:00am 10.2 2.4 4.8 69 2.4 SSW 35 43 19 23 1017.4 1017.4 4.2
26/02:30am 9.5 3.5 5.1 74 2.0 SW 26 33 14 18 1017.5 1017.5 4.2
26/02:00am 10.1 2.9 5.9 75 1.9 SW 33 44 18 24 1017.4 1017.4 4.0
26/01:30am 10.5 2.4 3.5 62 3.1 SSW 35 44 19 24 1017.5 1017.5 3.8
26/01:00am 9.7 3.3 5.3 74 2.0 SW 28 35 15 19 1017.7 1017.7 3.8
26/12:30am 10.2 3.8 5.2 71 2.3 SW 28 43 15 23 1017.4 1017.4 3.8
26/12:00am 9.2 2.9 5.6 78 1.6 SW 28 39 15 21 1017.7 1017.7 3.8
 
Date/Time
CST
Temp
°C
App
Temp
°C
Dew
Point
°C
Rel
Hum
%
Delta-T
°C
Wind Press
QNH
hPa
Press
MSL
hPa
Rain since
9am
mm
Dir  Spd
km/h
Gust
km/h
Spd
kts
Gust
kts
25/11:38pm 10.0 2.4 5.8 75 1.9 SW 35 65 19 35 1017.2 1017.2 3.4
25/11:30pm 10.1 2.0 5.1 71 2.3 SW 37 46 20 25 1017.2 1017.2 3.4
25/11:00pm 9.6 0.1 5.0 73 2.1 SSW 44 54 24 29 1016.9 1016.9 3.4
25/10:36pm 10.3 4.0 5.9 74 2.0 SW 28 46 15 25 1016.8 1016.8 3.4
25/10:30pm 10.1 4.6 6.1 76 1.8 SSW 24 32 13 17 1016.8 1016.8 3.4
25/10:00pm 9.3 1.0 6.2 81 1.4 S 39 54 21 29 1016.7 1016.7 3.4
25/09:58pm 9.1 0.8 6.0 81 1.4 S 39 54 21 29 1016.6 1016.6 3.4
25/09:30pm 10.4 1.8 4.8 68 2.5 SSW 39 50 21 27 1016.3 1016.3 3.0
25/09:00pm 10.3 1.8 5.1 70 2.4 SSW 39 50 21 27 1016.0 1016.0 3.0
25/08:30pm 10.5 2.1 5.7 72 2.2 SW 39 57 21 31 1015.6 1015.6 2.8
25/08:27pm 10.5 2.9 5.9 73 2.1 SW 35 57 19 31 1015.4 1015.4 2.8
25/08:16pm 9.5 0.5 4.7 72 2.1 SSW 41 52 22 28 1015.6 1015.6 2.8
25/08:05pm 9.4 0.8 4.8 73 2.1 SSW 39 52 21 28 1015.3 1015.3 2.6
25/08:00pm 9.7 1.9 5.1 73 2.1 SW 35 46 19 25 1015.5 1015.5 2.6
25/07:30pm 9.0 -0.7 5.6 79 1.5 SW 46 69 25 37 1015.2 1015.2 1.8
25/07:02pm 10.2 1.4 5.6 73 2.1 SW 41 59 22 32 1014.7 1014.7 0.4
25/07:00pm 9.8 0.5 5.0 72 2.2 SW 43 59 23 32 1014.8 1014.8 0.4
25/06:30pm 11.4 1.5 4.8 64 3.0 SW 46 59 25 32 1014.1 1014.1 0.4
25/06:00pm 11.3 1.0 4.7 64 3.0 SW 48 61 26 33 1013.6 1013.6 0.4
25/05:49pm 11.5 1.1 4.3 61 3.2 SW 48 69 26 37 1013.3 1013.3 0.4
25/05:30pm 11.5 0.7 4.3 61 3.2 SW 50 63 27 34 1013.1 1013.1 0.4
25/05:00pm 11.7 1.5 5.3 65 2.9 SW 48 61 26 33 1012.7 1012.7 0.4
25/04:30pm 10.6 1.4 5.4 70 2.4 SW 43 57 23 31 1012.5 1012.5 0.4
25/04:01pm 11.5 3.4 5.2 65 2.9 WSW 37 56 20 30 1012.1 1012.1 0.2
25/04:00pm 11.8 3.4 5.7 66 2.8 WSW 39 56 21 30 1012.2 1012.2 0.2
25/03:30pm 10.2 0.8 5.6 73 2.1 WSW 44 67 24 36 1012.0 1012.0 0.2
25/03:27pm 10.8 1.4 5.3 69 2.5 WSW 44 67 24 36 1012.1 1012.1 0.2
25/03:00pm 11.3 1.9 5.2 66 2.8 SW 44 59 24 32 1011.7 1011.7 0.2
25/02:36pm 13.1 3.6 4.0 54 4.1 WSW 43 61 23 33 1011.5 1011.5 0.2
25/02:30pm 13.0 3.4 4.4 56 3.9 SW 44 56 24 30 1011.5 1011.5 0.2
25/02:00pm 12.7 2.8 4.9 59 3.6 SW 46 63 25 34 1011.6 1011.6 0.2
25/01:52pm 12.9 3.2 3.8 54 4.1 SW 44 63 24 34 1011.5 1011.5 0.2
25/01:30pm 12.6 2.4 3.0 52 4.2 SW 46 57 25 31 1011.5 1011.5 0.2
25/01:01pm 12.3 3.3 4.3 58 3.6 SW 41 59 22 32 1011.3 1011.3 0.2
25/01:00pm 12.2 3.3 3.2 54 4.0 SW 39 56 21 30 1011.3 1011.3 0.2
25/12:36pm 12.8 5.0 4.8 58 3.7 SW 35 54 19 29 1011.5 1011.5 0.2
25/12:30pm 12.5 4.8 5.2 61 3.4 SSW 35 44 19 24 1011.6 1011.6 0.2
25/12:20pm 9.5 -1.2 2.8 63 2.9 SSW 48 67 26 36 1011.7 1011.7 0.2
25/12:00pm 12.8 2.5 6.4 65 3.0 SW 50 63 27 34 1011.3 1011.3 0.2
25/11:30am 11.3 1.0 4.5 63 3.1 SSW 48 57 26 31 1011.2 1011.2 0.2
25/11:00am 12.6 2.7 4.6 58 3.7 SSW 46 67 25 36 1010.8 1010.8 0.2
25/10:30am 9.4 -0.6 4.2 70 2.3 SSW 46 65 25 35 1011.1 1011.1 0.0
25/10:27am 9.5 -0.5 4.3 70 2.3 SSW 46 65 25 35 1011.2 1011.2 0.0
25/10:00am 10.9 0.5 4.4 64 2.9 S 48 59 26 32 1010.0 1010.0 0.0
25/09:30am 8.9 -3.0 4.5 74 1.9 SSW 56 82 30 44 1010.1 1010.1 0.0
25/09:23am 8.9 -4.7 4.1 72 2.1 SSW 65 85 35 46 1010.2 1010.2 0.0
25/09:21am 9.4 -4.2 4.2 70 2.3 SSW 65 85 35 46 1009.5 1009.5 0.0
25/09:00am 9.6 -1.4 5.2 74 2.0 SSW 52 70 28 38 1009.5 1009.5 8.0
25/08:55am 10.9 0.0 5.7 70 2.4 SSW 52 70 28 38 1009.1 1009.1 8.0
25/08:30am 10.5 -0.3 6.1 74 2.0 SSW 52 63 28 34 1008.8 1008.8 8.0
25/08:03am 9.0 -3.0 4.8 75 1.9 SSW 57 83 31 45 1007.7 1007.7 8.0
25/08:00am 9.3 -2.5 4.7 73 2.0 S 56 69 30 37 1008.0 1008.0 8.0
25/07:45am 8.7 -3.7 6.3 85 1.1 SSW 61 93 33 50 1008.0 1008.0 8.0
25/07:39am 9.3 -1.3 5.3 76 1.8 SSW 50 93 27 50 1006.8 1006.8 7.4
25/07:30am 9.2 0.1 5.9 80 1.5 SW 43 65 23 35 1007.7 1007.7 7.4
25/07:01am 9.1 -0.5 4.3 72 2.1 SSW 44 63 24 34 1006.6 1006.6 7.2
25/07:00am 9.0 -0.6 4.2 72 2.1 SSW 44 59 24 32 1006.6 1006.6 7.2
25/06:30am 8.8 -0.5 5.0 77 1.7 S 43 56 23 30 1006.2 1006.2 7.2
25/06:21am 8.3 -1.1 5.4 82 1.3 S 44 63 24 34 1006.3 1006.3 7.2
25/06:12am 8.1 0.3 4.7 79 1.5 SW 35 50 19 27 1006.3 1006.3 7.0
25/06:00am 8.1 -0.3 3.9 75 1.8 SW 37 46 20 25 1005.8 1005.8 7.0
25/05:50am 8.5 0.6 4.1 74 1.9 SW 35 52 19 28 1005.6 1005.6 6.8
25/05:30am 7.1 -0.3 4.1 81 1.3 W 32 50 17 27 1005.5 1005.5 6.8
25/05:24am 7.1 0.4 3.7 79 1.4 W 28 50 15 27 1005.4 1005.4 6.8
25/05:00am 7.3 -0.6 4.1 80 1.4 W 35 44 19 24 1005.4 1005.4 5.0
25/04:46am 7.6 0.1 3.3 74 1.8 W 32 56 17 30 1005.0 1005.0 4.8
25/04:30am 7.5 1.5 3.2 74 1.8 W 24 39 13 21 1005.0 1005.0 4.8
25/04:00am 8.1 1.7 3.0 70 2.2 W 26 39 14 21 1005.1 1005.1 4.8
25/03:30am 7.6 1.8 2.5 70 2.1 WNW 22 30 12 16 1005.2 1005.2 4.8
25/03:00am 7.4 1.6 2.1 69 2.2 WNW 22 30 12 16 1005.3 1005.3 4.8
25/02:30am 7.9 1.4 2.8 70 2.2 W 26 33 14 18 1005.7 1005.7 4.8
25/02:00am 7.8 1.3 2.7 70 2.1 W 26 37 14 20 1005.9 1005.9 4.8
25/01:30am 7.9 1.8 2.8 70 2.2 WNW 24 33 13 18 1006.3 1006.3 4.8
25/01:00am 7.4 2.2 2.7 72 2.0 WNW 19 22 10 12 1006.8 1006.8 4.8
25/12:30am 7.6 2.3 2.9 72 2.0 WNW 20 26 11 14 1007.3 1007.3 4.8
25/12:00am 7.3 2.6 3.2 75 1.7 WNW 17 24 9 13 1007.4 1007.4 4.8
 
Date/Time
CST
Temp
°C
App
Temp
°C
Dew
Point
°C
Rel
Hum
%
Delta-T
°C
Wind Press
QNH
hPa
Press
MSL
hPa
Rain since
9am
mm
Dir  Spd
km/h
Gust
km/h
Spd
kts
Gust
kts
24/11:30pm 7.3 2.6 3.2 75 1.7 WNW 17 26 9 14 1007.7 1007.7 4.8

Latest Capital City Observations: Canberra | Sydney | Melbourne | Brisbane | Adelaide | Perth | Hobart | Darwin

Other formats

Comma delimited format used in spreadsheet applications
http://www.bom.gov.au/fwo/IDS60901/IDS60901.94677.axf

JavaScript Object Notation format (JSON) in row-major order
http://www.bom.gov.au/fwo/IDS60901/IDS60901.94677.json

Data quality

Most of these data are generated automatically and are frequently updated. Quality checks on data are not normally performed. It is possible for incorrect values to appear. Refer to information at About Latest Weather Observations and please check the disclaimer before using these data.